Time;durP1;ratioP1;P1;durP2;ratioP2;P2;SDS_P1;SDS_P2;PMS_P1;PMS_P2;Temp;Humidity;BMP_temperature;BMP_pressure;BME280_temperature;BME280_humidity;BME280_pressure;Samples;Min_cycle;Max_cycle;Signal;HPM_P1;HPM_P2
2022/03/23 00:00:36;;;;;;;57.17;32.27;;;;;;;;;;780916;177;941570;-60
2022/03/23 00:03:02;;;;;;;54.37;33.80;;;;;;;;;;783535;178;918937;-62
2022/03/23 00:05:28;;;;;;;62.67;35.40;;;;;;;;;;786302;176;915275;-63
2022/03/23 00:07:54;;;;;;;56.87;32.80;;;;;;;;;;783824;178;915796;-62
2022/03/23 00:10:20;;;;;;;54.00;33.33;;;;;;;;;;767999;180;986615;-63
2022/03/23 00:12:45;;;;;;;56.57;31.27;;;;;;;;;;772475;180;918220;-63
2022/03/23 00:15:12;;;;;;;56.83;34.03;;;;;;;;;;784447;176;919368;-62
2022/03/23 00:17:37;;;;;;;55.37;34.07;;;;;;;;;;779738;177;921254;-63
2022/03/23 00:20:04;;;;;;;63.67;33.20;;;;;;;;;;778874;180;919114;-61
2022/03/23 00:22:29;;;;;;;55.08;31.27;;;;;;;;;;779355;180;918680;-60
2022/03/23 00:24:56;;;;;;;53.13;33.00;;;;;;;;;;785249;179;628842;-60
2022/03/23 00:27:21;;;;;;;57.00;34.10;;;;;;;;;;780603;179;711634;-62
2022/03/23 00:29:47;;;;;;;53.47;30.97;;;;;;;;;;780352;176;920302;-63
2022/03/23 00:32:14;;;;;;;52.60;33.63;;;;;;;;;;774286;179;920967;-62
2022/03/23 00:34:38;;;;;;;50.37;31.20;;;;;;;;;;771424;181;917299;-62
2022/03/23 00:37:04;;;;;;;56.30;33.00;;;;;;;;;;767425;177;919360;-62
2022/03/23 00:39:30;;;;;;;56.70;33.43;;;;;;;;;;783195;177;921850;-63
2022/03/23 00:41:56;;;;;;;49.47;32.17;;;;;;;;;;767951;179;920120;-63
2022/03/23 00:44:22;;;;;;;57.23;31.77;;;;;;;;;;763355;180;920009;-62
2022/03/23 00:46:47;;;;;;;60.23;30.80;;;;;;;;;;764481;183;920128;-60
2022/03/23 00:49:13;;;;;;;57.53;32.93;;;;;;;;;;771422;182;912566;-63
2022/03/23 00:51:39;;;;;;;55.67;31.40;;;;;;;;;;768933;181;917549;-63
2022/03/23 00:54:05;;;;;;;51.17;30.42;;;;;;;;;;763914;180;921168;-63
2022/03/23 00:56:31;;;;;;;47.13;27.17;;;;;;;;;;770117;179;921033;-63
2022/03/23 00:58:57;;;;;;;55.13;32.30;;;;;;;;;;765461;179;958004;-65
2022/03/23 01:01:23;;;;;;;51.73;30.70;;;;;;;;;;765406;180;921329;-63
2022/03/23 01:03:48;;;;;;;49.77;30.00;;;;;;;;;;780121;176;920609;-63
2022/03/23 01:06:14;;;;;;;50.58;32.00;;;;;;;;;;780777;179;1018961;-63
2022/03/23 01:08:40;;;;;;;49.90;29.60;;;;;;;;;;774413;179;914874;-63
2022/03/23 01:11:06;;;;;;;47.07;27.33;;;;;;;;;;773281;179;920462;-62
2022/03/23 01:13:32;;;;;;;45.50;27.37;;;;;;;;;;770117;180;943074;-63
2022/03/23 01:15:58;;;;;;;43.40;26.90;;;;;;;;;;772846;179;919917;-62
2022/03/23 01:18:24;;;;;;;43.63;28.33;;;;;;;;;;777095;178;919312;-63
2022/03/23 01:20:50;;;;;;;49.03;27.97;;;;;;;;;;792601;176;612789;-64
2022/03/23 01:23:15;;;;;;;51.83;28.13;;;;;;;;;;778122;178;919492;-66
2022/03/23 01:25:41;;;;;;;48.27;30.27;;;;;;;;;;770773;181;933006;-63
2022/03/23 01:28:08;;;;;;;45.93;27.47;;;;;;;;;;770128;182;919779;-63
2022/03/23 01:30:33;;;;;;;43.22;25.83;;;;;;;;;;767875;182;917915;-63
2022/03/23 01:32:59;;;;;;;48.40;28.40;;;;;;;;;;772815;176;919129;-63
2022/03/23 01:35:24;;;;;;;48.43;26.70;;;;;;;;;;774651;177;917121;-62
2022/03/23 01:37:50;;;;;;;47.80;30.05;;;;;;;;;;769266;179;919226;-64
2022/03/23 01:40:16;;;;;;;47.47;29.27;;;;;;;;;;769474;179;921385;-62
2022/03/23 01:42:42;;;;;;;55.37;30.13;;;;;;;;;;773366;181;627302;-63
2022/03/23 01:45:08;;;;;;;47.50;30.77;;;;;;;;;;774880;182;616727;-64
2022/03/23 01:47:34;;;;;;;58.37;27.67;;;;;;;;;;775934;179;916131;-63
2022/03/23 01:50:00;;;;;;;42.90;27.37;;;;;;;;;;774315;179;919062;-64
2022/03/23 01:52:25;;;;;;;50.57;29.50;;;;;;;;;;783216;180;919535;-62
2022/03/23 01:54:52;;;;;;;55.57;29.70;;;;;;;;;;781361;178;918337;-63
2022/03/23 01:57:17;;;;;;;46.13;28.45;;;;;;;;;;782696;178;919565;-64
2022/03/23 01:59:43;;;;;;;47.60;27.47;;;;;;;;;;785765;179;920486;-64
2022/03/23 02:02:09;;;;;;;46.83;27.93;;;;;;;;;;774965;177;919715;-64
2022/03/23 02:04:35;;;;;;;49.78;29.02;;;;;;;;;;772048;180;920752;-62
2022/03/23 02:07:03;;;;;;;42.67;26.00;;;;;;;;;;771368;180;919868;-62
2022/03/23 02:09:27;;;;;;;44.70;27.30;;;;;;;;;;779092;180;920206;-63
2022/03/23 02:11:53;;;;;;;50.63;27.30;;;;;;;;;;772058;180;920126;-64
2022/03/23 02:14:19;;;;;;;49.20;29.67;;;;;;;;;;778747;177;919372;-62
2022/03/23 02:16:45;;;;;;;44.30;25.63;;;;;;;;;;774786;181;713835;-63
2022/03/23 02:19:11;;;;;;;43.57;27.07;;;;;;;;;;776852;178;919581;-63
2022/03/23 02:21:37;;;;;;;42.80;25.40;;;;;;;;;;774121;177;919883;-62
2022/03/23 02:24:03;;;;;;;39.73;26.47;;;;;;;;;;781138;180;920112;-62
2022/03/23 02:26:29;;;;;;;52.33;28.60;;;;;;;;;;765122;180;925885;-61
2022/03/23 02:28:55;;;;;;;51.13;29.30;;;;;;;;;;776637;177;929583;-62
2022/03/23 02:31:21;;;;;;;45.57;26.70;;;;;;;;;;784029;177;919359;-63
2022/03/23 02:33:47;;;;;;;56.60;28.53;;;;;;;;;;780234;178;918792;-62
2022/03/23 02:36:13;;;;;;;46.43;28.60;;;;;;;;;;781792;180;918006;-62
2022/03/23 02:38:38;;;;;;;52.30;26.43;;;;;;;;;;776506;180;919914;-61
2022/03/23 02:41:04;;;;;;;47.57;27.60;;;;;;;;;;769862;180;919518;-61
2022/03/23 02:43:30;;;;;;;48.67;25.90;;;;;;;;;;769810;178;921116;-61
2022/03/23 02:45:56;;;;;;;46.72;28.35;;;;;;;;;;770312;179;919297;-62
2022/03/23 02:48:22;;;;;;;43.00;26.00;;;;;;;;;;775434;178;919726;-62
2022/03/23 02:50:47;;;;;;;52.40;28.93;;;;;;;;;;773409;180;919660;-61
2022/03/23 03:03:23;;;;;;;55.43;27.10;;;;;;;;;;765980;178;919879;-62
2022/03/23 03:05:49;;;;;;;45.90;27.60;;;;;;;;;;769256;178;919428;-63
2022/03/23 03:10:46;;;;;;;49.37;29.13;;;;;;;;;;767468;182;917846;-63
2022/03/23 03:13:12;;;;;;;42.33;26.67;;;;;;;;;;761928;180;919812;-61
2022/03/23 03:15:38;;;;;;;41.97;28.03;;;;;;;;;;777893;179;920560;-63
2022/03/23 03:18:04;;;;;;;43.73;26.80;;;;;;;;;;781522;179;918756;-63
2022/03/23 03:20:29;;;;;;;44.97;29.37;;;;;;;;;;776044;179;920243;-63
2022/03/23 03:22:55;;;;;;;44.63;27.77;;;;;;;;;;775962;179;919306;-62
2022/03/23 03:25:21;;;;;;;44.88;27.15;;;;;;;;;;775746;179;919104;-63
2022/03/23 03:27:47;;;;;;;42.83;28.10;;;;;;;;;;778543;177;919735;-62
2022/03/23 03:30:13;;;;;;;49.13;27.03;;;;;;;;;;764262;180;919406;-62
2022/03/23 03:32:39;;;;;;;42.37;27.27;;;;;;;;;;766251;180;919464;-60
2022/03/23 03:35:05;;;;;;;47.67;29.20;;;;;;;;;;766905;182;919341;-61
2022/03/23 03:37:31;;;;;;;41.67;28.00;;;;;;;;;;765383;179;915590;-61
2022/03/23 03:39:56;;;;;;;37.40;27.43;;;;;;;;;;774679;177;916610;-61
2022/03/23 03:42:22;;;;;;;41.13;27.37;;;;;;;;;;784067;179;816876;-62
2022/03/23 03:44:50;;;;;;;43.30;28.67;;;;;;;;;;769759;179;919831;-62
2022/03/23 03:47:15;;;;;;;48.00;28.20;;;;;;;;;;765977;180;919671;-62
2022/03/23 03:49:41;;;;;;;43.93;28.70;;;;;;;;;;775018;178;901000;-61
2022/03/23 03:52:07;;;;;;;41.00;28.60;;;;;;;;;;764074;183;816755;-63
2022/03/23 03:54:32;;;;;;;49.63;28.30;;;;;;;;;;775936;176;918663;-62
2022/03/23 03:56:58;;;;;;;38.93;26.73;;;;;;;;;;780946;179;919946;-61
2022/03/23 03:59:24;;;;;;;49.37;29.47;;;;;;;;;;769149;179;919942;-62
2022/03/23 04:01:50;;;;;;;47.60;29.10;;;;;;;;;;768082;181;919679;-62
2022/03/23 04:04:16;;;;;;;46.77;29.67;;;;;;;;;;773560;179;920276;-62
2022/03/23 04:06:42;;;;;;;42.30;27.67;;;;;;;;;;777211;179;796114;-62
2022/03/23 04:09:07;;;;;;;43.20;28.13;;;;;;;;;;769001;179;919049;-61
2022/03/23 04:11:34;;;;;;;42.50;30.47;;;;;;;;;;765103;181;919479;-62
2022/03/23 04:13:59;;;;;;;46.03;29.85;;;;;;;;;;775020;178;919791;-61
2022/03/23 04:16:25;;;;;;;39.90;27.43;;;;;;;;;;768181;180;919436;-61
2022/03/23 04:18:51;;;;;;;47.28;29.60;;;;;;;;;;767885;179;920454;-61
2022/03/23 04:21:17;;;;;;;49.63;28.30;;;;;;;;;;772003;180;1058649;-64
2022/03/23 04:23:43;;;;;;;51.97;30.67;;;;;;;;;;768453;180;919220;-62
2022/03/23 04:26:08;;;;;;;44.60;28.73;;;;;;;;;;778387;177;919515;-62
2022/03/23 04:28:35;;;;;;;46.10;29.25;;;;;;;;;;774826;179;919188;-61
2022/03/23 04:31:02;;;;;;;48.60;30.63;;;;;;;;;;765540;180;918866;-61
2022/03/23 04:33:28;;;;;;;46.80;32.10;;;;;;;;;;766937;180;1022040;-60
2022/03/23 04:35:54;;;;;;;45.47;31.93;;;;;;;;;;770148;180;906007;-61
2022/03/23 04:38:19;;;;;;;46.73;28.13;;;;;;;;;;774633;177;919471;-61
2022/03/23 04:40:45;;;;;;;42.47;30.20;;;;;;;;;;772296;179;922044;-60
2022/03/23 04:43:11;;;;;;;45.27;30.27;;;;;;;;;;773596;179;921618;-61
2022/03/23 04:45:37;;;;;;;46.90;29.40;;;;;;;;;;777793;180;918192;-61
2022/03/23 04:48:03;;;;;;;44.50;28.83;;;;;;;;;;776859;177;815156;-63
2022/03/23 04:50:29;;;;;;;49.27;29.47;;;;;;;;;;773756;177;919542;-62
2022/03/23 04:52:56;;;;;;;41.75;28.87;;;;;;;;;;777743;179;1012435;-60
2022/03/23 04:55:22;;;;;;;47.80;32.30;;;;;;;;;;775641;179;919778;-61
2022/03/23 04:57:48;;;;;;;45.27;29.47;;;;;;;;;;770399;180;919678;-62
2022/03/23 05:00:15;;;;;;;47.50;28.33;;;;;;;;;;772215;182;918723;-61
2022/03/23 05:02:39;;;;;;;45.57;29.90;;;;;;;;;;770567;183;918472;-61
2022/03/23 05:05:06;;;;;;;39.93;28.80;;;;;;;;;;772233;179;920839;-61
2022/03/23 05:07:32;;;;;;;57.40;30.48;;;;;;;;;;778083;179;917040;-61
2022/03/23 05:09:58;;;;;;;44.20;32.70;;;;;;;;;;785196;177;919713;-60
2022/03/23 05:12:24;;;;;;;52.43;30.90;;;;;;;;;;768856;179;919402;-61
2022/03/23 05:14:50;;;;;;;50.33;32.03;;;;;;;;;;767760;178;917346;-60
2022/03/23 05:17:16;;;;;;;48.83;33.35;;;;;;;;;;774564;180;860511;-60
2022/03/23 05:19:44;;;;;;;48.80;33.13;;;;;;;;;;772580;179;925928;-60
2022/03/23 05:22:08;;;;;;;49.60;33.47;;;;;;;;;;756467;181;915708;-61
2022/03/23 05:24:34;;;;;;;51.47;32.00;;;;;;;;;;761382;181;910666;-61
2022/03/23 05:27:00;;;;;;;59.57;33.60;;;;;;;;;;774169;179;922657;-60
2022/03/23 05:29:25;;;;;;;50.83;31.17;;;;;;;;;;770992;179;918157;-61
2022/03/23 05:31:51;;;;;;;47.47;31.97;;;;;;;;;;766569;178;919477;-60
2022/03/23 05:34:17;;;;;;;61.97;36.33;;;;;;;;;;778063;179;917632;-60
2022/03/23 05:36:43;;;;;;;71.57;37.10;;;;;;;;;;767318;180;918447;-61
2022/03/23 05:39:09;;;;;;;56.80;35.17;;;;;;;;;;768605;180;920060;-61
2022/03/23 05:41:35;;;;;;;61.00;37.77;;;;;;;;;;778439;179;919596;-61
2022/03/23 05:44:00;;;;;;;64.80;39.30;;;;;;;;;;770727;180;927814;-61
2022/03/23 05:46:26;;;;;;;68.68;40.78;;;;;;;;;;778304;177;919768;-61
2022/03/23 05:48:52;;;;;;;63.20;39.57;;;;;;;;;;773654;180;918521;-60
2022/03/23 05:51:18;;;;;;;68.73;40.30;;;;;;;;;;773559;180;918853;-60
2022/03/23 05:53:44;;;;;;;76.07;44.50;;;;;;;;;;768494;180;919871;-60
2022/03/23 05:56:10;;;;;;;68.13;44.27;;;;;;;;;;769858;179;919978;-61
2022/03/23 05:58:35;;;;;;;82.70;47.77;;;;;;;;;;776211;180;919566;-61
2022/03/23 06:01:02;;;;;;;71.57;45.20;;;;;;;;;;768183;180;919293;-60
2022/03/23 06:03:27;;;;;;;78.70;46.67;;;;;;;;;;770547;179;948485;-61
2022/03/23 06:05:53;;;;;;;75.78;43.22;;;;;;;;;;773677;178;1021682;-60
2022/03/23 06:08:19;;;;;;;85.20;49.13;;;;;;;;;;773320;179;919510;-60
2022/03/23 06:10:45;;;;;;;72.23;46.50;;;;;;;;;;779395;178;919261;-59
2022/03/23 06:13:11;;;;;;;74.97;45.30;;;;;;;;;;779705;178;949206;-60
2022/03/23 06:15:37;;;;;;;73.80;44.47;;;;;;;;;;776495;180;919367;-61
2022/03/23 06:18:02;;;;;;;71.73;43.43;;;;;;;;;;766094;180;936377;-60
2022/03/23 06:20:28;;;;;;;88.30;47.03;;;;;;;;;;779617;178;916464;-60
2022/03/23 06:22:54;;;;;;;95.93;48.60;;;;;;;;;;778957;179;919680;-61
2022/03/23 06:25:20;;;;;;;87.20;51.00;;;;;;;;;;772992;179;816423;-60
2022/03/23 06:27:46;;;;;;;86.60;42.60;;;;;;;;;;771007;179;1022507;-61
2022/03/23 06:30:12;;;;;;;76.17;40.17;;;;;;;;;;780936;180;625513;-62
2022/03/23 06:32:38;;;;;;;61.97;37.93;;;;;;;;;;773225;179;929124;-62
2022/03/23 06:35:04;;;;;;;72.00;39.17;;;;;;;;;;778598;179;919900;-61
2022/03/23 06:37:31;;;;;;;71.10;42.40;;;;;;;;;;775051;179;920205;-61
2022/03/23 06:39:57;;;;;;;66.00;38.83;;;;;;;;;;773680;179;919142;-62
2022/03/23 06:42:23;;;;;;;57.43;36.57;;;;;;;;;;769401;179;919980;-62
2022/03/23 06:44:48;;;;;;;68.00;36.43;;;;;;;;;;770173;180;921451;-63
2022/03/23 06:47:14;;;;;;;59.08;37.42;;;;;;;;;;775049;179;918925;-63
2022/03/23 06:49:40;;;;;;;56.70;33.70;;;;;;;;;;772770;179;919661;-63
2022/03/23 06:52:06;;;;;;;48.00;32.10;;;;;;;;;;771922;179;918673;-62
2022/03/23 06:54:32;;;;;;;48.67;29.17;;;;;;;;;;783944;177;926918;-63
2022/03/23 06:56:58;;;;;;;46.20;30.13;;;;;;;;;;768255;180;920755;-63
2022/03/23 06:59:24;;;;;;;56.07;28.60;;;;;;;;;;776544;179;919669;-61
2022/03/23 07:01:50;;;;;;;47.58;31.77;;;;;;;;;;772863;179;919871;-61
2022/03/23 07:04:16;;;;;;;48.43;28.70;;;;;;;;;;777598;179;920004;-64
2022/03/23 07:06:42;;;;;;;44.50;27.20;;;;;;;;;;777973;177;923967;-64
2022/03/23 07:11:39;;;;;;;45.10;25.50;;;;;;;;;;774948;179;938752;-64
2022/03/23 07:14:05;;;;;;;47.13;29.87;;;;;;;;;;773811;180;915024;-64
2022/03/23 07:16:31;;;;;;;47.63;26.93;;;;;;;;;;772512;178;920029;-65
2022/03/23 07:18:57;;;;;;;45.17;28.23;;;;;;;;;;779582;179;915414;-64
2022/03/23 07:21:23;;;;;;;47.93;27.53;;;;;;;;;;772850;179;1021796;-63
2022/03/23 07:23:48;;;;;;;42.17;24.77;;;;;;;;;;772764;178;919870;-64
2022/03/23 07:26:15;;;;;;;44.97;26.43;;;;;;;;;;765753;179;1021680;-64
2022/03/23 07:28:40;;;;;;;53.27;28.53;;;;;;;;;;768954;180;919888;-65
2022/03/23 07:31:06;;;;;;;42.00;26.47;;;;;;;;;;765707;180;919587;-62
2022/03/23 07:33:32;;;;;;;49.30;25.30;;;;;;;;;;767983;177;919761;-64
2022/03/23 07:35:58;;;;;;;45.10;27.67;;;;;;;;;;773294;181;919234;-63
2022/03/23 07:38:24;;;;;;;41.40;25.57;;;;;;;;;;773190;179;907773;-64
2022/03/23 07:40:49;;;;;;;40.57;25.83;;;;;;;;;;776412;179;922090;-64
2022/03/23 07:43:15;;;;;;;40.77;25.17;;;;;;;;;;781292;179;636130;-63
2022/03/23 07:45:41;;;;;;;63.07;25.20;;;;;;;;;;775343;180;919419;-64
2022/03/23 07:48:07;;;;;;;52.10;23.90;;;;;;;;;;764979;180;919043;-63
2022/03/23 07:50:33;;;;;;;52.10;27.10;;;;;;;;;;771711;179;919536;-63
2022/03/23 07:52:59;;;;;;;56.23;31.20;;;;;;;;;;775011;180;983429;-64
2022/03/23 07:55:25;;;;;;;56.30;32.83;;;;;;;;;;773658;177;919806;-64
2022/03/23 07:57:50;;;;;;;57.47;35.43;;;;;;;;;;782701;179;920114;-64
2022/03/23 08:00:16;;;;;;;55.73;34.17;;;;;;;;;;786709;179;926767;-64
2022/03/23 08:02:42;;;;;;;50.83;32.53;;;;;;;;;;776575;180;925463;-64
2022/03/23 08:05:09;;;;;;;47.23;25.73;;;;;;;;;;769285;180;1022129;-64
2022/03/23 08:07:34;;;;;;;40.33;23.33;;;;;;;;;;773344;179;919767;-64
2022/03/23 08:10:00;;;;;;;37.63;23.20;;;;;;;;;;779171;179;919883;-65
2022/03/23 08:12:26;;;;;;;42.40;22.20;;;;;;;;;;770529;179;918719;-64
2022/03/23 08:14:52;;;;;;;44.97;24.80;;;;;;;;;;779069;177;919229;-64
2022/03/23 08:17:18;;;;;;;44.10;25.27;;;;;;;;;;777101;179;828205;-65
2022/03/23 08:19:43;;;;;;;49.27;27.60;;;;;;;;;;770787;180;817118;-64
2022/03/23 08:22:11;;;;;;;44.53;28.23;;;;;;;;;;771460;180;919468;-64
2022/03/23 08:24:35;;;;;;;40.23;21.13;;;;;;;;;;776832;179;713958;-64
2022/03/23 08:27:01;;;;;;;36.83;22.80;;;;;;;;;;782224;177;919332;-64
2022/03/23 08:29:27;;;;;;;35.47;22.97;;;;;;;;;;774983;177;920000;-65
2022/03/23 08:31:53;;;;;;;38.90;23.50;;;;;;;;;;773449;180;917002;-66
2022/03/23 08:34:19;;;;;;;36.63;21.80;;;;;;;;;;765615;180;1059199;-65
2022/03/23 08:36:44;;;;;;;36.73;22.17;;;;;;;;;;776236;177;919499;-64
2022/03/23 08:39:10;;;;;;;37.30;21.30;;;;;;;;;;778240;179;919847;-66
2022/03/23 08:41:36;;;;;;;32.83;20.50;;;;;;;;;;777991;179;906810;-65
2022/03/23 08:44:02;;;;;;;30.40;17.17;;;;;;;;;;781858;177;918599;-65
2022/03/23 08:46:28;;;;;;;29.63;18.40;;;;;;;;;;773265;177;1008606;-65
2022/03/23 08:48:54;;;;;;;27.70;16.53;;;;;;;;;;788947;175;638556;-65
2022/03/23 08:51:19;;;;;;;32.40;17.90;;;;;;;;;;768982;182;633675;-66
2022/03/23 08:53:45;;;;;;;37.73;16.57;;;;;;;;;;768269;180;1022752;-65
2022/03/23 08:56:11;;;;;;;22.00;14.73;;;;;;;;;;777042;179;920064;-66
2022/03/23 08:58:37;;;;;;;24.70;15.07;;;;;;;;;;769486;180;919475;-67
2022/03/23 09:01:03;;;;;;;24.30;14.90;;;;;;;;;;769450;181;919322;-66
2022/03/23 09:03:29;;;;;;;24.33;14.60;;;;;;;;;;772227;180;919553;-66
2022/03/23 09:05:55;;;;;;;22.10;12.80;;;;;;;;;;769895;179;920222;-65
2022/03/23 09:08:20;;;;;;;12.70;10.00;;;;;;;;;;769717;181;919454;-65
2022/03/23 09:10:46;;;;;;;26.17;13.07;;;;;;;;;;766960;181;1016739;-65
2022/03/23 09:13:12;;;;;;;19.90;11.93;;;;;;;;;;776860;179;919637;-66
2022/03/23 09:15:38;;;;;;;22.33;14.40;;;;;;;;;;768008;179;919279;-66
2022/03/23 09:18:04;;;;;;;20.40;13.00;;;;;;;;;;784804;179;918183;-66
2022/03/23 09:20:30;;;;;;;17.80;13.10;;;;;;;;;;790984;179;645083;-66
2022/03/23 09:22:55;;;;;;;21.80;12.40;;;;;;;;;;774703;179;918397;-67
2022/03/23 09:25:22;;;;;;;26.63;14.80;;;;;;;;;;778218;178;920163;-66
2022/03/23 09:27:48;;;;;;;28.43;15.77;;;;;;;;;;773725;179;918499;-65
2022/03/23 09:30:14;;;;;;;29.97;15.90;;;;;;;;;;773386;180;918799;-66
2022/03/23 09:32:40;;;;;;;20.58;13.48;;;;;;;;;;770760;179;920254;-67
2022/03/23 09:35:06;;;;;;;23.27;15.97;;;;;;;;;;765222;180;923248;-65
2022/03/23 09:40:04;;;;;;;19.67;13.37;;;;;;;;;;756544;181;994006;-67
2022/03/23 09:42:31;;;;;;;19.67;13.70;;;;;;;;;;777475;176;916336;-66
2022/03/23 09:44:56;;;;;;;20.73;13.33;;;;;;;;;;787211;178;905754;-67
2022/03/23 09:47:22;;;;;;;22.67;12.33;;;;;;;;;;785184;177;929181;-66
2022/03/23 09:49:48;;;;;;;16.50;12.47;;;;;;;;;;777378;179;920142;-68
2022/03/23 09:52:14;;;;;;;24.27;14.50;;;;;;;;;;771985;179;919241;-66
2022/03/23 09:54:41;;;;;;;23.37;13.90;;;;;;;;;;770785;178;816687;-67
2022/03/23 09:57:06;;;;;;;21.97;14.27;;;;;;;;;;765609;179;816421;-67
2022/03/23 09:59:32;;;;;;;22.20;13.33;;;;;;;;;;776184;179;869362;-67
2022/03/23 10:02:15;;;;;;;20.50;12.67;;;;;;;;;;783899;177;919454;-68
2022/03/23 10:04:47;;;;;;;19.83;12.17;;;;;;;;;;766884;183;816195;-66
2022/03/23 10:07:13;;;;;;;20.60;12.47;;;;;;;;;;749724;186;919664;-68
2022/03/23 10:09:55;;;;;;;16.33;11.40;;;;;;;;;;778681;179;919748;-67
2022/03/23 10:12:36;;;;;;;18.47;11.93;;;;;;;;;;765646;182;627990;-67
2022/03/23 10:15:18;;;;;;;19.70;12.13;;;;;;;;;;766977;180;1021490;-67
2022/03/23 10:17:46;;;;;;;19.90;12.00;;;;;;;;;;762217;178;723895;-69
2022/03/23 10:20:12;;;;;;;17.20;10.90;;;;;;;;;;776439;180;867670;-67
2022/03/23 10:22:38;;;;;;;16.67;11.13;;;;;;;;;;776211;179;920083;-69
2022/03/23 10:25:06;;;;;;;16.20;10.60;;;;;;;;;;769797;180;918828;-67
2022/03/23 10:27:32;;;;;;;14.80;8.57;;;;;;;;;;773749;179;919601;-68
2022/03/23 10:29:58;;;;;;;10.60;7.10;;;;;;;;;;780118;180;918882;-69
2022/03/23 10:32:24;;;;;;;10.23;7.17;;;;;;;;;;772505;179;921141;-67
2022/03/23 10:34:50;;;;;;;10.60;6.43;;;;;;;;;;768702;179;942177;-68
2022/03/23 10:37:21;;;;;;;11.05;7.62;;;;;;;;;;769524;179;922323;-67
2022/03/23 10:39:46;;;;;;;12.60;7.93;;;;;;;;;;764918;182;913244;-70
2022/03/23 10:42:13;;;;;;;13.83;8.43;;;;;;;;;;763796;180;921032;-69
2022/03/23 10:44:39;;;;;;;17.02;9.50;;;;;;;;;;773647;179;1021145;-67
2022/03/23 10:47:05;;;;;;;19.20;9.53;;;;;;;;;;773850;180;918751;-67
2022/03/23 10:49:32;;;;;;;10.97;7.50;;;;;;;;;;771703;179;918277;-67
2022/03/23 10:51:57;;;;;;;10.33;7.67;;;;;;;;;;773342;178;921678;-69
2022/03/23 10:54:26;;;;;;;15.50;8.48;;;;;;;;;;791033;175;1097427;-68
2022/03/23 10:56:50;;;;;;;10.27;8.07;;;;;;;;;;781684;178;918680;-67
2022/03/23 10:59:22;;;;;;;17.87;10.23;;;;;;;;;;775842;180;917471;-68
2022/03/23 11:02:05;;;;;;;16.50;10.17;;;;;;;;;;774874;180;924787;-67
2022/03/23 11:04:31;;;;;;;13.70;9.70;;;;;;;;;;776431;179;918888;-68
2022/03/23 11:06:58;;;;;;;15.37;10.40;;;;;;;;;;782776;178;919795;-67
2022/03/23 11:17:03;;;;;;;14.73;10.17;;;;;;;;;;776819;179;920191;-69
2022/03/23 11:19:29;;;;;;;14.47;9.50;;;;;;;;;;783895;179;871087;-70
2022/03/23 11:21:56;;;;;;;15.00;10.43;;;;;;;;;;773847;179;1015998;-68
2022/03/23 11:24:21;;;;;;;17.10;11.30;;;;;;;;;;767203;180;918790;-67
2022/03/23 11:26:47;;;;;;;13.90;10.20;;;;;;;;;;777507;179;917073;-69
2022/03/23 11:29:13;;;;;;;13.00;10.40;;;;;;;;;;778886;179;919937;-67
2022/03/23 11:31:39;;;;;;;12.15;9.25;;;;;;;;;;778739;179;917213;-68
2022/03/23 11:34:04;;;;;;;17.00;10.33;;;;;;;;;;776608;179;922185;-67
2022/03/23 11:36:30;;;;;;;12.20;9.03;;;;;;;;;;780999;176;917846;-68
2022/03/23 11:38:59;;;;;;;19.07;10.37;;;;;;;;;;767092;180;632266;-68
2022/03/23 11:41:22;;;;;;;17.70;11.40;;;;;;;;;;767559;178;629811;-68
2022/03/23 11:43:48;;;;;;;18.35;9.75;;;;;;;;;;783012;176;920287;-68
2022/03/23 11:46:13;;;;;;;12.30;8.60;;;;;;;;;;770823;179;912932;-68
2022/03/23 11:48:39;;;;;;;11.88;9.18;;;;;;;;;;777688;179;919906;-67
2022/03/23 11:51:11;;;;;;;11.43;7.60;;;;;;;;;;775338;177;927390;-68
2022/03/23 11:53:54;;;;;;;11.30;7.90;;;;;;;;;;776874;179;912108;-68
2022/03/23 11:56:22;;;;;;;10.10;7.53;;;;;;;;;;776217;179;919108;-69
2022/03/23 11:58:47;;;;;;;15.10;9.47;;;;;;;;;;768921;180;919633;-69
2022/03/23 12:01:14;;;;;;;13.13;8.20;;;;;;;;;;769874;180;918937;-69
2022/03/23 12:03:49;;;;;;;13.53;7.70;;;;;;;;;;777503;179;623959;-71
2022/03/23 12:06:15;;;;;;;15.83;8.40;;;;;;;;;;780888;179;918668;-69
2022/03/23 12:08:43;;;;;;;15.73;9.33;;;;;;;;;;767940;178;912674;-69
2022/03/23 12:11:14;;;;;;;10.90;8.63;;;;;;;;;;774855;178;920105;-70
2022/03/23 12:13:59;;;;;;;13.50;8.60;;;;;;;;;;767810;179;919230;-69
2022/03/23 12:16:31;;;;;;;11.43;7.70;;;;;;;;;;774164;182;917274;-68
2022/03/23 12:18:58;;;;;;;12.53;8.10;;;;;;;;;;777678;182;919297;-70
2022/03/23 12:21:25;;;;;;;14.03;8.17;;;;;;;;;;770353;181;815830;-69
2022/03/23 12:23:53;;;;;;;11.98;8.32;;;;;;;;;;768171;181;919235;-70
2022/03/23 12:26:21;;;;;;;12.20;8.37;;;;;;;;;;773559;181;918907;-70
2022/03/23 12:28:44;;;;;;;13.10;7.63;;;;;;;;;;767748;182;919456;-69
2022/03/23 12:31:13;;;;;;;11.23;8.00;;;;;;;;;;766108;182;919013;-69
2022/03/23 12:33:42;;;;;;;12.27;7.97;;;;;;;;;;770316;177;919099;-68
2022/03/23 12:36:08;;;;;;;10.80;7.77;;;;;;;;;;777056;179;919039;-69
2022/03/23 12:38:34;;;;;;;11.17;8.37;;;;;;;;;;769601;179;1316763;-69
2022/03/23 12:41:02;;;;;;;10.97;8.27;;;;;;;;;;773756;179;918788;-68
2022/03/23 12:43:34;;;;;;;14.80;7.50;;;;;;;;;;773296;178;1020520;-70
2022/03/23 12:45:59;;;;;;;8.90;7.03;;;;;;;;;;776484;181;919322;-68
2022/03/23 12:58:45;;;;;;;10.53;7.63;;;;;;;;;;775870;179;941437;-69
2022/03/23 13:01:11;;;;;;;14.80;8.07;;;;;;;;;;771417;176;919337;-69
2022/03/23 13:03:53;;;;;;;10.07;7.60;;;;;;;;;;771677;179;918343;-69
2022/03/23 13:06:19;;;;;;;11.10;7.10;;;;;;;;;;768789;182;810012;-68
2022/03/23 13:08:48;;;;;;;9.47;7.30;;;;;;;;;;774162;175;918859;-69
2022/03/23 13:11:16;;;;;;;11.68;7.50;;;;;;;;;;780835;179;948114;-69
2022/03/23 13:13:43;;;;;;;10.13;6.70;;;;;;;;;;772083;177;1097188;-70
2022/03/23 13:16:08;;;;;;;13.13;8.10;;;;;;;;;;775080;178;921586;-69
2022/03/23 13:18:36;;;;;;;11.13;6.83;;;;;;;;;;780732;179;920313;-70
2022/03/23 13:21:00;;;;;;;9.93;7.10;;;;;;;;;;771460;179;924657;-69
2022/03/23 13:23:25;;;;;;;11.00;6.95;;;;;;;;;;776964;179;915454;-69
2022/03/23 13:25:57;;;;;;;8.83;6.70;;;;;;;;;;774618;179;922669;-70
2022/03/23 13:28:23;;;;;;;9.50;6.80;;;;;;;;;;780249;179;916188;-69
2022/03/23 13:30:49;;;;;;;13.00;6.67;;;;;;;;;;773490;177;922358;-70
2022/03/23 13:33:15;;;;;;;10.90;8.13;;;;;;;;;;767757;180;915980;-69
2022/03/23 13:35:42;;;;;;;11.87;7.80;;;;;;;;;;776949;180;888661;-69
2022/03/23 13:38:08;;;;;;;8.27;6.40;;;;;;;;;;774228;177;919307;-70
2022/03/23 13:43:19;;;;;;;11.83;6.13;;;;;;;;;;772274;180;919597;-69
2022/03/23 13:45:32;;;;;;;9.87;6.80;;;;;;;;;;778619;179;918653;-71
2022/03/23 13:47:58;;;;;;;9.53;6.83;;;;;;;;;;779078;179;919314;-70
2022/03/23 13:50:26;;;;;;;11.07;7.62;;;;;;;;;;779475;180;923180;-71
2022/03/23 13:52:50;;;;;;;14.00;7.30;;;;;;;;;;782005;179;921281;-68
2022/03/23 13:55:16;;;;;;;10.97;6.60;;;;;;;;;;765164;180;919034;-68
2022/03/23 13:57:42;;;;;;;12.43;7.10;;;;;;;;;;769343;178;920124;-69
2022/03/23 14:00:10;;;;;;;9.93;6.50;;;;;;;;;;775909;179;942717;-69
2022/03/23 14:02:36;;;;;;;10.00;7.10;;;;;;;;;;778967;179;919983;-69
2022/03/23 14:05:03;;;;;;;8.23;6.03;;;;;;;;;;774658;177;918281;-71
2022/03/23 14:07:29;;;;;;;10.80;7.50;;;;;;;;;;765799;179;925871;-70
2022/03/23 14:09:54;;;;;;;12.77;6.90;;;;;;;;;;772412;180;918118;-70
2022/03/23 14:12:20;;;;;;;12.30;7.73;;;;;;;;;;775106;179;919325;-70
2022/03/23 14:14:45;;;;;;;9.18;6.25;;;;;;;;;;776521;178;920890;-70
2022/03/23 14:17:23;;;;;;;8.70;6.13;;;;;;;;;;773172;181;915835;-69
2022/03/23 14:19:47;;;;;;;14.43;7.80;;;;;;;;;;770653;182;940213;-72
2022/03/23 14:22:14;;;;;;;9.43;6.23;;;;;;;;;;765031;180;895391;-70
2022/03/23 14:24:39;;;;;;;11.00;7.07;;;;;;;;;;765809;180;862816;-69
2022/03/23 14:27:10;;;;;;;15.03;7.33;;;;;;;;;;783924;177;916954;-70
2022/03/23 14:29:36;;;;;;;9.50;6.63;;;;;;;;;;774717;181;916507;-69
2022/03/23 14:32:03;;;;;;;8.13;6.40;;;;;;;;;;774278;180;919857;-68
2022/03/23 14:34:30;;;;;;;9.97;7.33;;;;;;;;;;770131;178;915929;-69
2022/03/23 14:37:00;;;;;;;10.07;7.50;;;;;;;;;;774238;180;915625;-68
2022/03/23 14:39:26;;;;;;;10.13;6.93;;;;;;;;;;768756;180;919577;-69